PDT,Max TemperatureF,Mean TemperatureF,Min TemperatureF,Max Dew PointF,MeanDew PointF,Min DewpointF,Max Humidity, Mean Humidity, Min Humidity, Max Sea Level PressureIn, Mean Sea Level PressureIn, Min Sea Level PressureIn, Max VisibilityMiles, Mean VisibilityMiles, Min VisibilityMiles, Max Wind SpeedMPH, Mean Wind SpeedMPH, Max Gust SpeedMPH,PrecipitationIn, CloudCover, Events, WindDirDegrees
2012-4-1,47,36,24,27,21,5,92,56,19,30.06,29.81,29.44,10,6,1,31,13,43,0.06,7,Rain-Snow,333
2012-4-2,49,34,18,15,9,3,71,44,17,30.16,30.10,30.04,10,10,10,26,13,40,0.00,1,,351
2012-4-3,64,40,15,19,11,5,73,42,11,30.17,30.02,29.82,10,10,10,18,7,22,0.00,0,,175
2012-4-4,68,51,33,17,11,0,31,20,8,29.94,29.67,29.53,10,10,10,35,16,53,0.00,1,,208
2012-4-5,56,41,25,27,18,4,92,53,13,29.85,29.73,29.52,10,6,0,33,12,48,0.29,4,Fog-Snow,322
2012-4-6,44,27,9,23,16,2,88,53,18,30.28,30.05,29.80,10,8,1,12,5,25,T,4,Snow,286
2012-4-7,61,38,15,17,8,-3,80,44,8,30.35,30.23,30.12,10,10,10,21,9,26,0.00,0,,183
2012-4-8,70,45,19,10,4,-4,54,30,5,30.22,30.11,29.99,10,10,10,22,12,29,0.00,0,,181
2012-4-9,72,48,24,12,7,3,46,27,7,30.09,29.95,29.83,10,10,10,24,11,32,0.00,0,,174
2012-4-10,72,53,33,18,12,6,47,28,8,29.89,29.75,29.59,10,10,10,33,17,43,0.00,0,,171
2012-4-11,58,47,35,37,28,16,92,60,28,29.88,29.68,29.54,10,10,8,32,17,41,0.13,5,Rain-Thunderstorm,183
2012-4-12,50,41,32,34,28,19,89,63,37,29.93,29.86,29.75,10,8,1,28,7,35,0.03,7,Rain-Snow-Thunderstorm,254
2012-4-13,49,40,30,30,26,22,78,58,38,29.88,29.65,29.50,10,9,2,29,13,37,T,6,Snow,170
2012-4-14,52,41,29,34,27,24,85,62,39,29.88,29.63,29.47,10,10,4,32,12,41,T,6,Snow,359
2012-4-15,55,39,23,28,21,14,88,55,22,30.12,30.04,29.93,10,10,10,21,7,38,0.00,4,,304
2012-4-16,66,45,24,30,22,18,75,48,20,30.19,30.11,30.01,10,10,10,28,8,36,T,3,,202
2012-4-17,65,53,40,39,33,23,92,58,24,30.25,30.04,29.93,10,10,3,16,8,21,0.19,4,Rain,204
2012-4-18,59,47,35,36,31,28,70,53,35,30.00,29.92,29.86,10,10,10,17,7,26,0.01,5,Rain,289
2012-4-19,67,51,34,33,31,28,76,50,24,30.14,30.04,29.97,10,10,10,22,9,35,0.00,3,,294
2012-4-20,81,57,33,36,30,26,76,46,16,30.31,30.09,29.99,10,10,10,14,7,22,0.00,0,,184
2012-4-21,79,59,39,36,30,25,76,45,13,30.06,29.98,29.91,10,10,10,15,7,18,0.00,2,,179
2012-4-22,84,62,40,35,31,27,65,40,14,30.22,30.00,29.88,10,10,10,30,8,41,T,3,Rain-Thunderstorm,128
2012-4-23,83,61,38,31,22,14,60,34,7,30.12,29.87,29.75,10,10,10,29,12,38,0.00,0,,177
2012-4-24,76,58,39,28,23,17,59,36,12,30.08,29.82,29.77,10,10,10,20,9,25,0.00,0,,189
2012-4-25,69,58,46,37,33,24,59,42,24,30.08,29.81,29.70,10,10,10,25,13,33,0.00,4,,168
2012-4-26,67,50,33,45,36,30,61,44,26,29.95,29.69,29.49,10,8,2,33,16,45,0.33,5,Rain-Thunderstorm,210
2012-4-27,55,42,29,31,23,17,92,58,24,30.16,30.06,29.91,10,10,10,18,8,22,0.00,1,,325
2012-4-28,58,43,27,26,23,19,81,54,27,30.14,30.00,29.93,10,10,10,17,8,25,0.00,2,,356
2012-4-29,66,46,25,30,23,15,92,54,15,30.08,29.97,29.91,10,10,10,14,7,17,0.00,0,,181
2012-4-30,73,52,31,29,23,20,72,44,15,29.99,29.81,29.62,10,10,10,25,11,40,0.00,3,,198